sensor_id;sensor_type;location;lat;lon;timestamp;P1;durP1;ratioP1;P2;durP2;ratioP2
34403;SDS011;23116;47.660;9.126;2024-01-07T00:02:19;1.20;;;1.10;;
34403;SDS011;23116;47.660;9.126;2024-01-07T00:04:46;1.30;;;1.20;;
34403;SDS011;23116;47.660;9.126;2024-01-07T00:07:13;0.80;;;0.80;;
34403;SDS011;23116;47.660;9.126;2024-01-07T00:09:40;0.98;;;0.98;;
34403;SDS011;23116;47.660;9.126;2024-01-07T00:12:08;1.35;;;1.00;;
34403;SDS011;23116;47.660;9.126;2024-01-07T00:14:35;1.08;;;1.08;;
34403;SDS011;23116;47.660;9.126;2024-01-07T00:17:02;0.93;;;0.93;;
34403;SDS011;23116;47.660;9.126;2024-01-07T00:19:30;0.60;;;0.60;;
34403;SDS011;23116;47.660;9.126;2024-01-07T00:22:00;0.90;;;0.90;;
34403;SDS011;23116;47.660;9.126;2024-01-07T00:24:27;0.90;;;0.90;;
34403;SDS011;23116;47.660;9.126;2024-01-07T00:26:55;0.70;;;0.70;;
34403;SDS011;23116;47.660;9.126;2024-01-07T00:29:22;0.80;;;0.80;;
34403;SDS011;23116;47.660;9.126;2024-01-07T00:31:49;0.57;;;0.57;;
34403;SDS011;23116;47.660;9.126;2024-01-07T00:34:19;0.80;;;0.80;;
34403;SDS011;23116;47.660;9.126;2024-01-07T00:36:46;0.98;;;0.88;;
34403;SDS011;23116;47.660;9.126;2024-01-07T00:39:13;0.73;;;0.70;;
34403;SDS011;23116;47.660;9.126;2024-01-07T00:41:40;0.85;;;0.85;;
34403;SDS011;23116;47.660;9.126;2024-01-07T00:44:07;0.70;;;0.70;;
34403;SDS011;23116;47.660;9.126;2024-01-07T00:46:35;1.13;;;0.85;;
34403;SDS011;23116;47.660;9.126;2024-01-07T00:49:02;0.90;;;0.90;;
34403;SDS011;23116;47.660;9.126;2024-01-07T00:51:29;1.15;;;1.10;;
34403;SDS011;23116;47.660;9.126;2024-01-07T00:53:56;0.75;;;0.75;;
34403;SDS011;23116;47.660;9.126;2024-01-07T00:56:26;1.00;;;1.00;;
34403;SDS011;23116;47.660;9.126;2024-01-07T00:58:55;1.20;;;1.10;;
34403;SDS011;23116;47.660;9.126;2024-01-07T01:01:22;1.40;;;1.30;;
34403;SDS011;23116;47.660;9.126;2024-01-07T01:03:49;1.90;;;0.90;;
34403;SDS011;23116;47.660;9.126;2024-01-07T01:06:16;1.00;;;1.00;;
34403;SDS011;23116;47.660;9.126;2024-01-07T01:08:43;1.13;;;1.13;;
34403;SDS011;23116;47.660;9.126;2024-01-07T01:11:10;1.45;;;1.35;;
34403;SDS011;23116;47.660;9.126;2024-01-07T01:13:37;1.25;;;1.25;;
34403;SDS011;23116;47.660;9.126;2024-01-07T01:16:05;1.70;;;1.60;;
34403;SDS011;23116;47.660;9.126;2024-01-07T01:18:32;1.63;;;1.52;;
34403;SDS011;23116;47.660;9.126;2024-01-07T01:20:59;1.52;;;1.42;;
34403;SDS011;23116;47.660;9.126;2024-01-07T01:23:26;1.73;;;1.63;;
34403;SDS011;23116;47.660;9.126;2024-01-07T01:25:53;1.27;;;1.20;;
34403;SDS011;23116;47.660;9.126;2024-01-07T01:28:20;1.70;;;1.60;;
34403;SDS011;23116;47.660;9.126;2024-01-07T01:30:47;1.55;;;1.45;;
34403;SDS011;23116;47.660;9.126;2024-01-07T01:33:14;1.80;;;1.70;;
34403;SDS011;23116;47.660;9.126;2024-01-07T01:35:41;1.90;;;1.80;;
34403;SDS011;23116;47.660;9.126;2024-01-07T01:38:09;1.80;;;1.70;;
34403;SDS011;23116;47.660;9.126;2024-01-07T01:40:36;1.90;;;1.80;;
34403;SDS011;23116;47.660;9.126;2024-01-07T01:43:03;2.17;;;1.98;;
34403;SDS011;23116;47.660;9.126;2024-01-07T01:45:31;1.80;;;1.70;;
34403;SDS011;23116;47.660;9.126;2024-01-07T01:47:58;1.85;;;1.75;;
34403;SDS011;23116;47.660;9.126;2024-01-07T01:50:25;2.22;;;1.88;;
34403;SDS011;23116;47.660;9.126;2024-01-07T01:52:53;3.17;;;2.17;;
34403;SDS011;23116;47.660;9.126;2024-01-07T01:55:21;2.20;;;2.10;;
34403;SDS011;23116;47.660;9.126;2024-01-07T01:57:48;1.90;;;1.80;;
34403;SDS011;23116;47.660;9.126;2024-01-07T02:00:19;1.85;;;1.75;;
34403;SDS011;23116;47.660;9.126;2024-01-07T02:02:46;2.33;;;2.13;;
34403;SDS011;23116;47.660;9.126;2024-01-07T02:05:13;2.45;;;2.25;;
34403;SDS011;23116;47.660;9.126;2024-01-07T02:07:40;2.47;;;2.28;;
34403;SDS011;23116;47.660;9.126;2024-01-07T02:10:07;2.47;;;2.30;;
34403;SDS011;23116;47.660;9.126;2024-01-07T02:12:35;1.88;;;1.77;;
34403;SDS011;23116;47.660;9.126;2024-01-07T02:15:02;2.00;;;1.90;;
34403;SDS011;23116;47.660;9.126;2024-01-07T02:17:30;2.22;;;2.03;;
34403;SDS011;23116;47.660;9.126;2024-01-07T02:19:57;2.08;;;1.98;;
34403;SDS011;23116;47.660;9.126;2024-01-07T02:22:24;2.17;;;2.03;;
34403;SDS011;23116;47.660;9.126;2024-01-07T02:24:51;2.40;;;2.20;;
34403;SDS011;23116;47.660;9.126;2024-01-07T02:27:18;2.53;;;2.33;;
34403;SDS011;23116;47.660;9.126;2024-01-07T02:29:45;2.03;;;1.90;;
34403;SDS011;23116;47.660;9.126;2024-01-07T02:32:12;2.05;;;1.95;;
34403;SDS011;23116;47.660;9.126;2024-01-07T02:34:40;2.33;;;2.13;;
34403;SDS011;23116;47.660;9.126;2024-01-07T02:37:07;2.53;;;2.33;;
34403;SDS011;23116;47.660;9.126;2024-01-07T02:39:34;1.88;;;1.77;;
34403;SDS011;23116;47.660;9.126;2024-01-07T02:42:01;1.70;;;1.60;;
34403;SDS011;23116;47.660;9.126;2024-01-07T02:44:28;2.15;;;1.90;;
34403;SDS011;23116;47.660;9.126;2024-01-07T02:46:55;2.38;;;2.22;;
34403;SDS011;23116;47.660;9.126;2024-01-07T02:49:22;2.05;;;1.95;;
34403;SDS011;23116;47.660;9.126;2024-01-07T02:51:49;1.83;;;1.73;;
34403;SDS011;23116;47.660;9.126;2024-01-07T02:54:17;2.20;;;2.10;;
34403;SDS011;23116;47.660;9.126;2024-01-07T02:56:44;2.25;;;2.08;;
34403;SDS011;23116;47.660;9.126;2024-01-07T02:59:11;2.38;;;2.17;;
34403;SDS011;23116;47.660;9.126;2024-01-07T03:01:38;2.10;;;2.00;;
34403;SDS011;23116;47.660;9.126;2024-01-07T03:04:07;2.45;;;2.25;;
34403;SDS011;23116;47.660;9.126;2024-01-07T03:06:40;1.80;;;1.70;;
34403;SDS011;23116;47.660;9.126;2024-01-07T03:09:07;2.00;;;1.90;;
34403;SDS011;23116;47.660;9.126;2024-01-07T03:11:39;2.03;;;1.90;;
34403;SDS011;23116;47.660;9.126;2024-01-07T03:14:07;2.03;;;1.92;;
34403;SDS011;23116;47.660;9.126;2024-01-07T03:16:34;2.35;;;2.17;;
34403;SDS011;23116;47.660;9.126;2024-01-07T03:19:01;1.92;;;1.83;;
34403;SDS011;23116;47.660;9.126;2024-01-07T03:21:29;2.63;;;2.42;;
34403;SDS011;23116;47.660;9.126;2024-01-07T03:23:57;1.75;;;1.65;;
34403;SDS011;23116;47.660;9.126;2024-01-07T03:28:58;1.67;;;1.58;;
34403;SDS011;23116;47.660;9.126;2024-01-07T03:31:26;2.13;;;1.92;;
34403;SDS011;23116;47.660;9.126;2024-01-07T03:33:53;2.40;;;2.20;;
34403;SDS011;23116;47.660;9.126;2024-01-07T03:36:20;2.40;;;2.20;;
34403;SDS011;23116;47.660;9.126;2024-01-07T03:38:47;2.22;;;2.05;;
34403;SDS011;23116;47.660;9.126;2024-01-07T03:41:18;1.77;;;1.67;;
34403;SDS011;23116;47.660;9.126;2024-01-07T03:43:46;1.55;;;1.45;;
34403;SDS011;23116;47.660;9.126;2024-01-07T03:46:14;2.13;;;2.03;;
34403;SDS011;23116;47.660;9.126;2024-01-07T03:48:42;1.98;;;1.88;;
34403;SDS011;23116;47.660;9.126;2024-01-07T03:51:09;1.92;;;1.83;;
34403;SDS011;23116;47.660;9.126;2024-01-07T03:53:36;2.40;;;2.20;;
34403;SDS011;23116;47.660;9.126;2024-01-07T03:56:03;2.13;;;2.03;;
34403;SDS011;23116;47.660;9.126;2024-01-07T03:58:42;2.45;;;2.25;;
34403;SDS011;23116;47.660;9.126;2024-01-07T04:01:09;1.88;;;1.77;;
34403;SDS011;23116;47.660;9.126;2024-01-07T04:03:40;1.83;;;1.73;;
34403;SDS011;23116;47.660;9.126;2024-01-07T04:06:08;2.25;;;2.13;;
34403;SDS011;23116;47.660;9.126;2024-01-07T04:08:35;1.63;;;1.52;;
34403;SDS011;23116;47.660;9.126;2024-01-07T04:11:03;2.15;;;2.03;;
34403;SDS011;23116;47.660;9.126;2024-01-07T04:13:30;1.80;;;1.70;;
34403;SDS011;23116;47.660;9.126;2024-01-07T04:15:57;2.28;;;2.13;;
34403;SDS011;23116;47.660;9.126;2024-01-07T04:18:24;2.05;;;1.92;;
34403;SDS011;23116;47.660;9.126;2024-01-07T04:20:54;2.60;;;2.40;;
34403;SDS011;23116;47.660;9.126;2024-01-07T04:23:21;1.90;;;1.80;;
34403;SDS011;23116;47.660;9.126;2024-01-07T04:25:48;2.00;;;1.88;;
34403;SDS011;23116;47.660;9.126;2024-01-07T04:28:15;2.28;;;2.08;;
34403;SDS011;23116;47.660;9.126;2024-01-07T04:30:42;1.80;;;1.70;;
34403;SDS011;23116;47.660;9.126;2024-01-07T04:33:09;2.22;;;2.10;;
34403;SDS011;23116;47.660;9.126;2024-01-07T04:35:36;1.95;;;1.85;;
34403;SDS011;23116;47.660;9.126;2024-01-07T04:38:03;2.13;;;1.98;;
34403;SDS011;23116;47.660;9.126;2024-01-07T04:40:30;2.08;;;1.90;;
34403;SDS011;23116;47.660;9.126;2024-01-07T04:42:58;2.55;;;2.13;;
34403;SDS011;23116;47.660;9.126;2024-01-07T04:45:25;1.90;;;1.80;;
34403;SDS011;23116;47.660;9.126;2024-01-07T04:47:52;2.30;;;2.10;;
34403;SDS011;23116;47.660;9.126;2024-01-07T04:50:20;1.90;;;1.80;;
34403;SDS011;23116;47.660;9.126;2024-01-07T04:52:48;1.85;;;1.75;;
34403;SDS011;23116;47.660;9.126;2024-01-07T04:55:15;2.28;;;2.08;;
34403;SDS011;23116;47.660;9.126;2024-01-07T04:57:43;1.90;;;1.80;;
34403;SDS011;23116;47.660;9.126;2024-01-07T05:00:10;1.95;;;1.70;;
34403;SDS011;23116;47.660;9.126;2024-01-07T05:02:38;1.95;;;1.85;;
34403;SDS011;23116;47.660;9.126;2024-01-07T05:05:05;2.13;;;2.03;;
34403;SDS011;23116;47.660;9.126;2024-01-07T05:07:34;2.20;;;1.95;;
34403;SDS011;23116;47.660;9.126;2024-01-07T05:10:02;1.83;;;1.73;;
34403;SDS011;23116;47.660;9.126;2024-01-07T05:12:30;1.88;;;1.77;;
34403;SDS011;23116;47.660;9.126;2024-01-07T05:14:57;1.90;;;1.80;;
34403;SDS011;23116;47.660;9.126;2024-01-07T05:17:24;1.92;;;1.83;;
34403;SDS011;23116;47.660;9.126;2024-01-07T05:19:51;1.70;;;1.60;;
34403;SDS011;23116;47.660;9.126;2024-01-07T05:22:18;1.77;;;1.67;;
34403;SDS011;23116;47.660;9.126;2024-01-07T05:24:47;1.95;;;1.85;;
34403;SDS011;23116;47.660;9.126;2024-01-07T05:27:14;1.60;;;1.50;;
34403;SDS011;23116;47.660;9.126;2024-01-07T05:29:44;1.70;;;1.60;;
34403;SDS011;23116;47.660;9.126;2024-01-07T05:32:14;2.08;;;1.88;;
34403;SDS011;23116;47.660;9.126;2024-01-07T05:34:41;2.20;;;2.00;;
34403;SDS011;23116;47.660;9.126;2024-01-07T05:37:08;2.10;;;2.00;;
34403;SDS011;23116;47.660;9.126;2024-01-07T05:39:36;1.95;;;1.85;;
34403;SDS011;23116;47.660;9.126;2024-01-07T05:42:03;2.38;;;2.17;;
34403;SDS011;23116;47.660;9.126;2024-01-07T05:44:30;2.42;;;2.20;;
34403;SDS011;23116;47.660;9.126;2024-01-07T05:46:57;1.92;;;1.83;;
34403;SDS011;23116;47.660;9.126;2024-01-07T05:49:24;2.28;;;2.08;;
34403;SDS011;23116;47.660;9.126;2024-01-07T05:51:51;2.42;;;2.22;;
34403;SDS011;23116;47.660;9.126;2024-01-07T05:54:19;2.47;;;2.28;;
34403;SDS011;23116;47.660;9.126;2024-01-07T05:56:47;2.25;;;2.05;;
34403;SDS011;23116;47.660;9.126;2024-01-07T05:59:14;2.42;;;2.22;;
34403;SDS011;23116;47.660;9.126;2024-01-07T06:01:41;3.10;;;2.17;;
34403;SDS011;23116;47.660;9.126;2024-01-07T06:04:09;2.60;;;2.40;;
34403;SDS011;23116;47.660;9.126;2024-01-07T06:06:36;2.40;;;2.20;;
34403;SDS011;23116;47.660;9.126;2024-01-07T06:09:03;3.00;;;2.70;;
34403;SDS011;23116;47.660;9.126;2024-01-07T06:11:30;2.50;;;2.30;;
34403;SDS011;23116;47.660;9.126;2024-01-07T06:13:57;2.17;;;2.03;;
34403;SDS011;23116;47.660;9.126;2024-01-07T06:16:24;2.47;;;2.28;;
34403;SDS011;23116;47.660;9.126;2024-01-07T06:18:52;2.53;;;2.33;;
34403;SDS011;23116;47.660;9.126;2024-01-07T06:21:19;2.42;;;2.22;;
34403;SDS011;23116;47.660;9.126;2024-01-07T06:23:46;2.15;;;2.05;;
34403;SDS011;23116;47.660;9.126;2024-01-07T06:26:13;1.90;;;1.80;;
34403;SDS011;23116;47.660;9.126;2024-01-07T06:28:41;1.90;;;1.80;;
34403;SDS011;23116;47.660;9.126;2024-01-07T06:31:09;3.13;;;2.30;;
34403;SDS011;23116;47.660;9.126;2024-01-07T06:33:36;2.30;;;2.10;;
34403;SDS011;23116;47.660;9.126;2024-01-07T06:36:03;2.50;;;2.30;;
34403;SDS011;23116;47.660;9.126;2024-01-07T06:38:30;2.75;;;2.55;;
34403;SDS011;23116;47.660;9.126;2024-01-07T06:40:58;2.10;;;1.90;;
34403;SDS011;23116;47.660;9.126;2024-01-07T06:43:29;2.17;;;1.98;;
34403;SDS011;23116;47.660;9.126;2024-01-07T06:45:57;2.30;;;2.10;;
34403;SDS011;23116;47.660;9.126;2024-01-07T06:48:24;2.58;;;2.38;;
34403;SDS011;23116;47.660;9.126;2024-01-07T06:50:51;2.40;;;2.20;;
34403;SDS011;23116;47.660;9.126;2024-01-07T06:53:18;2.55;;;2.35;;
34403;SDS011;23116;47.660;9.126;2024-01-07T06:55:46;4.13;;;2.70;;
34403;SDS011;23116;47.660;9.126;2024-01-07T06:58:13;2.70;;;2.50;;
34403;SDS011;23116;47.660;9.126;2024-01-07T07:00:40;2.60;;;2.38;;
34403;SDS011;23116;47.660;9.126;2024-01-07T07:03:07;2.88;;;2.67;;
34403;SDS011;23116;47.660;9.126;2024-01-07T07:05:35;2.60;;;2.40;;
34403;SDS011;23116;47.660;9.126;2024-01-07T07:08:02;2.70;;;2.50;;
34403;SDS011;23116;47.660;9.126;2024-01-07T07:10:30;2.40;;;2.20;;
34403;SDS011;23116;47.660;9.126;2024-01-07T07:12:57;2.30;;;2.10;;
34403;SDS011;23116;47.660;9.126;2024-01-07T07:15:24;2.50;;;2.30;;
34403;SDS011;23116;47.660;9.126;2024-01-07T07:17:53;2.22;;;2.03;;
34403;SDS011;23116;47.660;9.126;2024-01-07T07:20:21;2.55;;;2.20;;
34403;SDS011;23116;47.660;9.126;2024-01-07T07:22:48;3.40;;;2.90;;
34403;SDS011;23116;47.660;9.126;2024-01-07T07:25:16;2.45;;;2.25;;
34403;SDS011;23116;47.660;9.126;2024-01-07T07:27:43;2.45;;;2.25;;
34403;SDS011;23116;47.660;9.126;2024-01-07T07:30:10;2.10;;;1.90;;
34403;SDS011;23116;47.660;9.126;2024-01-07T07:32:40;2.13;;;2.00;;
34403;SDS011;23116;47.660;9.126;2024-01-07T07:35:07;2.30;;;2.10;;
34403;SDS011;23116;47.660;9.126;2024-01-07T07:37:35;2.40;;;2.20;;
34403;SDS011;23116;47.660;9.126;2024-01-07T07:40:03;2.42;;;2.22;;
34403;SDS011;23116;47.660;9.126;2024-01-07T07:42:31;2.58;;;2.38;;
34403;SDS011;23116;47.660;9.126;2024-01-07T07:44:58;2.40;;;2.20;;
34403;SDS011;23116;47.660;9.126;2024-01-07T07:47:27;2.10;;;2.00;;
34403;SDS011;23116;47.660;9.126;2024-01-07T07:49:54;1.70;;;1.60;;
34403;SDS011;23116;47.660;9.126;2024-01-07T07:52:21;1.85;;;1.75;;
34403;SDS011;23116;47.660;9.126;2024-01-07T07:54:53;2.30;;;2.10;;
34403;SDS011;23116;47.660;9.126;2024-01-07T07:57:21;2.10;;;1.90;;
34403;SDS011;23116;47.660;9.126;2024-01-07T07:59:50;2.03;;;1.92;;
34403;SDS011;23116;47.660;9.126;2024-01-07T08:02:18;2.30;;;2.10;;
34403;SDS011;23116;47.660;9.126;2024-01-07T08:04:46;2.10;;;1.90;;
34403;SDS011;23116;47.660;9.126;2024-01-07T08:07:13;2.55;;;2.35;;
34403;SDS011;23116;47.660;9.126;2024-01-07T08:09:40;2.97;;;2.78;;
34403;SDS011;23116;47.660;9.126;2024-01-07T08:12:07;2.67;;;2.47;;
34403;SDS011;23116;47.660;9.126;2024-01-07T08:14:37;2.60;;;2.40;;
34403;SDS011;23116;47.660;9.126;2024-01-07T08:17:07;2.90;;;2.70;;
34403;SDS011;23116;47.660;9.126;2024-01-07T08:19:35;2.58;;;2.38;;
34403;SDS011;23116;47.660;9.126;2024-01-07T08:22:02;2.63;;;2.10;;
34403;SDS011;23116;47.660;9.126;2024-01-07T08:24:29;2.58;;;2.38;;
34403;SDS011;23116;47.660;9.126;2024-01-07T08:26:56;2.40;;;2.20;;
34403;SDS011;23116;47.660;9.126;2024-01-07T08:29:24;2.63;;;2.42;;
34403;SDS011;23116;47.660;9.126;2024-01-07T08:31:51;2.80;;;2.60;;
34403;SDS011;23116;47.660;9.126;2024-01-07T08:34:18;2.92;;;2.58;;
34403;SDS011;23116;47.660;9.126;2024-01-07T08:36:45;2.72;;;2.45;;
34403;SDS011;23116;47.660;9.126;2024-01-07T08:39:15;2.58;;;2.38;;
34403;SDS011;23116;47.660;9.126;2024-01-07T08:41:43;3.30;;;3.00;;
34403;SDS011;23116;47.660;9.126;2024-01-07T08:44:10;3.25;;;2.85;;
34403;SDS011;23116;47.660;9.126;2024-01-07T08:46:37;2.88;;;2.63;;
34403;SDS011;23116;47.660;9.126;2024-01-07T08:49:04;3.30;;;3.00;;
34403;SDS011;23116;47.660;9.126;2024-01-07T08:51:31;2.97;;;2.70;;
34403;SDS011;23116;47.660;9.126;2024-01-07T08:53:58;2.83;;;2.53;;
34403;SDS011;23116;47.660;9.126;2024-01-07T08:56:26;2.70;;;2.50;;
34403;SDS011;23116;47.660;9.126;2024-01-07T08:58:53;3.05;;;2.85;;
34403;SDS011;23116;47.660;9.126;2024-01-07T09:01:20;4.45;;;3.10;;
34403;SDS011;23116;47.660;9.126;2024-01-07T09:03:49;2.63;;;2.42;;
34403;SDS011;23116;47.660;9.126;2024-01-07T09:06:18;2.80;;;2.40;;
34403;SDS011;23116;47.660;9.126;2024-01-07T09:08:45;3.25;;;2.70;;
34403;SDS011;23116;47.660;9.126;2024-01-07T09:11:13;2.80;;;2.60;;
34403;SDS011;23116;47.660;9.126;2024-01-07T09:13:41;3.55;;;3.25;;
34403;SDS011;23116;47.660;9.126;2024-01-07T09:16:09;3.50;;;3.20;;
34403;SDS011;23116;47.660;9.126;2024-01-07T09:18:37;3.10;;;2.90;;
34403;SDS011;23116;47.660;9.126;2024-01-07T09:21:04;3.58;;;3.28;;
34403;SDS011;23116;47.660;9.126;2024-01-07T09:23:31;2.80;;;2.50;;
34403;SDS011;23116;47.660;9.126;2024-01-07T09:26:01;2.40;;;2.20;;
34403;SDS011;23116;47.660;9.126;2024-01-07T09:28:28;3.05;;;2.85;;
34403;SDS011;23116;47.660;9.126;2024-01-07T09:30:55;2.75;;;2.55;;
34403;SDS011;23116;47.660;9.126;2024-01-07T09:33:22;2.83;;;2.63;;
34403;SDS011;23116;47.660;9.126;2024-01-07T09:35:50;2.90;;;2.63;;
34403;SDS011;23116;47.660;9.126;2024-01-07T09:38:19;2.83;;;2.63;;
34403;SDS011;23116;47.660;9.126;2024-01-07T09:40:46;2.88;;;2.58;;
34403;SDS011;23116;47.660;9.126;2024-01-07T09:43:14;2.90;;;2.60;;
34403;SDS011;23116;47.660;9.126;2024-01-07T09:45:41;2.85;;;2.65;;
34403;SDS011;23116;47.660;9.126;2024-01-07T09:48:13;2.78;;;2.58;;
34403;SDS011;23116;47.660;9.126;2024-01-07T09:50:41;2.50;;;2.30;;
34403;SDS011;23116;47.660;9.126;2024-01-07T09:53:11;2.40;;;2.20;;
34403;SDS011;23116;47.660;9.126;2024-01-07T09:55:57;2.72;;;2.53;;
34403;SDS011;23116;47.660;9.126;2024-01-07T09:58:41;2.63;;;2.42;;
34403;SDS011;23116;47.660;9.126;2024-01-07T10:01:15;2.75;;;2.55;;
34403;SDS011;23116;47.660;9.126;2024-01-07T10:03:45;2.30;;;2.13;;
34403;SDS011;23116;47.660;9.126;2024-01-07T10:06:12;2.63;;;2.42;;
34403;SDS011;23116;47.660;9.126;2024-01-07T10:08:44;2.67;;;2.47;;
34403;SDS011;23116;47.660;9.126;2024-01-07T10:11:13;2.55;;;2.35;;
34403;SDS011;23116;47.660;9.126;2024-01-07T10:13:40;2.72;;;2.53;;
34403;SDS011;23116;47.660;9.126;2024-01-07T10:16:10;2.30;;;2.10;;
34403;SDS011;23116;47.660;9.126;2024-01-07T10:18:37;2.67;;;2.47;;
34403;SDS011;23116;47.660;9.126;2024-01-07T10:21:05;2.50;;;2.30;;
34403;SDS011;23116;47.660;9.126;2024-01-07T10:23:33;3.08;;;2.88;;
34403;SDS011;23116;47.660;9.126;2024-01-07T10:26:11;2.70;;;2.50;;
34403;SDS011;23116;47.660;9.126;2024-01-07T10:28:39;2.47;;;2.28;;
34403;SDS011;23116;47.660;9.126;2024-01-07T10:31:09;2.83;;;2.63;;
34403;SDS011;23116;47.660;9.126;2024-01-07T10:33:36;2.83;;;2.58;;
34403;SDS011;23116;47.660;9.126;2024-01-07T10:36:05;2.78;;;2.58;;
34403;SDS011;23116;47.660;9.126;2024-01-07T10:38:33;2.40;;;2.20;;
34403;SDS011;23116;47.660;9.126;2024-01-07T10:41:01;2.53;;;2.33;;
34403;SDS011;23116;47.660;9.126;2024-01-07T10:43:30;2.60;;;2.40;;
34403;SDS011;23116;47.660;9.126;2024-01-07T10:46:00;2.63;;;2.42;;
34403;SDS011;23116;47.660;9.126;2024-01-07T10:48:30;2.35;;;2.15;;
34403;SDS011;23116;47.660;9.126;2024-01-07T10:51:00;2.50;;;2.28;;
34403;SDS011;23116;47.660;9.126;2024-01-07T10:53:28;3.10;;;2.28;;
34403;SDS011;23116;47.660;9.126;2024-01-07T10:56:05;2.78;;;2.47;;
34403;SDS011;23116;47.660;9.126;2024-01-07T10:58:37;2.35;;;2.15;;
34403;SDS011;23116;47.660;9.126;2024-01-07T11:01:04;2.42;;;2.22;;
34403;SDS011;23116;47.660;9.126;2024-01-07T11:03:37;2.60;;;2.40;;
34403;SDS011;23116;47.660;9.126;2024-01-07T11:09:31;2.67;;;2.47;;
34403;SDS011;23116;47.660;9.126;2024-01-07T11:12:06;3.13;;;2.92;;
34403;SDS011;23116;47.660;9.126;2024-01-07T11:14:37;2.92;;;2.45;;
34403;SDS011;23116;47.660;9.126;2024-01-07T11:17:12;2.70;;;2.50;;
34403;SDS011;23116;47.660;9.126;2024-01-07T11:19:59;2.00;;;1.90;;
34403;SDS011;23116;47.660;9.126;2024-01-07T11:22:31;2.80;;;2.60;;
34403;SDS011;23116;47.660;9.126;2024-01-07T11:24:59;2.45;;;2.25;;
34403;SDS011;23116;47.660;9.126;2024-01-07T11:27:31;2.17;;;1.98;;
34403;SDS011;23116;47.660;9.126;2024-01-07T11:30:10;2.55;;;2.35;;
34403;SDS011;23116;47.660;9.126;2024-01-07T11:32:45;2.45;;;2.25;;
34403;SDS011;23116;47.660;9.126;2024-01-07T11:35:12;2.15;;;2.00;;
34403;SDS011;23116;47.660;9.126;2024-01-07T11:37:41;2.40;;;2.20;;
34403;SDS011;23116;47.660;9.126;2024-01-07T11:40:09;2.30;;;2.10;;
34403;SDS011;23116;47.660;9.126;2024-01-07T11:42:36;2.00;;;1.90;;
34403;SDS011;23116;47.660;9.126;2024-01-07T11:45:03;1.77;;;1.60;;
34403;SDS011;23116;47.660;9.126;2024-01-07T11:47:31;2.00;;;1.90;;
34403;SDS011;23116;47.660;9.126;2024-01-07T11:49:58;1.90;;;1.80;;
34403;SDS011;23116;47.660;9.126;2024-01-07T11:52:25;2.25;;;2.08;;
34403;SDS011;23116;47.660;9.126;2024-01-07T11:54:54;2.00;;;1.90;;
34403;SDS011;23116;47.660;9.126;2024-01-07T11:57:21;2.25;;;2.10;;
34403;SDS011;23116;47.660;9.126;2024-01-07T11:59:48;2.42;;;2.22;;
34403;SDS011;23116;47.660;9.126;2024-01-07T12:02:16;2.30;;;2.10;;
34403;SDS011;23116;47.660;9.126;2024-01-07T12:04:44;2.35;;;2.15;;
34403;SDS011;23116;47.660;9.126;2024-01-07T12:07:11;2.88;;;2.20;;
34403;SDS011;23116;47.660;9.126;2024-01-07T12:09:39;2.22;;;2.10;;
34403;SDS011;23116;47.660;9.126;2024-01-07T12:12:06;2.20;;;2.00;;
34403;SDS011;23116;47.660;9.126;2024-01-07T12:14:34;1.95;;;1.85;;
34403;SDS011;23116;47.660;9.126;2024-01-07T12:17:01;2.60;;;2.40;;
34403;SDS011;23116;47.660;9.126;2024-01-07T12:19:28;2.65;;;2.45;;
34403;SDS011;23116;47.660;9.126;2024-01-07T12:22:02;3.30;;;3.00;;
34403;SDS011;23116;47.660;9.126;2024-01-07T12:24:33;3.28;;;2.97;;
34403;SDS011;23116;47.660;9.126;2024-01-07T12:27:04;3.17;;;2.88;;
34403;SDS011;23116;47.660;9.126;2024-01-07T12:29:32;2.83;;;2.63;;
34403;SDS011;23116;47.660;9.126;2024-01-07T12:31:59;2.80;;;2.60;;
34403;SDS011;23116;47.660;9.126;2024-01-07T12:34:27;3.33;;;3.10;;
34403;SDS011;23116;47.660;9.126;2024-01-07T12:36:55;3.72;;;3.33;;
34403;SDS011;23116;47.660;9.126;2024-01-07T12:39:24;3.30;;;3.00;;
34403;SDS011;23116;47.660;9.126;2024-01-07T12:41:51;3.08;;;2.80;;
34403;SDS011;23116;47.660;9.126;2024-01-07T12:44:18;3.28;;;3.08;;
34403;SDS011;23116;47.660;9.126;2024-01-07T12:46:45;4.13;;;3.60;;
34403;SDS011;23116;47.660;9.126;2024-01-07T12:49:13;3.20;;;2.75;;
34403;SDS011;23116;47.660;9.126;2024-01-07T12:51:40;3.15;;;2.85;;
34403;SDS011;23116;47.660;9.126;2024-01-07T12:54:07;3.08;;;2.78;;
34403;SDS011;23116;47.660;9.126;2024-01-07T12:56:35;2.88;;;2.55;;
34403;SDS011;23116;47.660;9.126;2024-01-07T12:59:02;2.22;;;2.03;;
34403;SDS011;23116;47.660;9.126;2024-01-07T13:01:29;2.80;;;2.60;;
34403;SDS011;23116;47.660;9.126;2024-01-07T13:03:56;2.50;;;2.30;;
34403;SDS011;23116;47.660;9.126;2024-01-07T13:06:24;2.72;;;2.53;;
34403;SDS011;23116;47.660;9.126;2024-01-07T13:08:51;2.55;;;2.35;;
34403;SDS011;23116;47.660;9.126;2024-01-07T13:11:19;2.28;;;2.08;;
34403;SDS011;23116;47.660;9.126;2024-01-07T13:13:47;3.10;;;2.80;;
34403;SDS011;23116;47.660;9.126;2024-01-07T13:16:14;2.80;;;2.60;;
34403;SDS011;23116;47.660;9.126;2024-01-07T13:18:41;3.00;;;2.70;;
34403;SDS011;23116;47.660;9.126;2024-01-07T13:21:08;2.60;;;2.40;;
34403;SDS011;23116;47.660;9.126;2024-01-07T13:23:35;3.10;;;2.83;;
34403;SDS011;23116;47.660;9.126;2024-01-07T13:26:02;2.45;;;2.25;;
34403;SDS011;23116;47.660;9.126;2024-01-07T13:28:31;2.70;;;2.50;;
34403;SDS011;23116;47.660;9.126;2024-01-07T13:30:58;3.00;;;2.80;;
34403;SDS011;23116;47.660;9.126;2024-01-07T13:33:25;3.03;;;2.83;;
34403;SDS011;23116;47.660;9.126;2024-01-07T13:35:52;3.25;;;2.95;;
34403;SDS011;23116;47.660;9.126;2024-01-07T13:38:19;2.38;;;2.17;;
34403;SDS011;23116;47.660;9.126;2024-01-07T13:40:47;3.00;;;2.80;;
34403;SDS011;23116;47.660;9.126;2024-01-07T13:43:14;3.15;;;2.60;;
34403;SDS011;23116;47.660;9.126;2024-01-07T13:45:41;2.90;;;2.60;;
34403;SDS011;23116;47.660;9.126;2024-01-07T13:48:08;2.33;;;2.13;;
34403;SDS011;23116;47.660;9.126;2024-01-07T13:50:35;3.03;;;2.72;;
34403;SDS011;23116;47.660;9.126;2024-01-07T13:53:02;2.95;;;2.47;;
34403;SDS011;23116;47.660;9.126;2024-01-07T13:55:30;2.60;;;2.40;;
34403;SDS011;23116;47.660;9.126;2024-01-07T13:57:57;2.78;;;2.55;;
34403;SDS011;23116;47.660;9.126;2024-01-07T14:00:24;2.58;;;2.38;;
34403;SDS011;23116;47.660;9.126;2024-01-07T14:02:51;2.65;;;2.45;;
34403;SDS011;23116;47.660;9.126;2024-01-07T14:05:18;2.63;;;2.42;;
34403;SDS011;23116;47.660;9.126;2024-01-07T14:07:45;2.33;;;2.13;;
34403;SDS011;23116;47.660;9.126;2024-01-07T14:10:12;3.17;;;2.78;;
34403;SDS011;23116;47.660;9.126;2024-01-07T14:12:39;2.30;;;2.10;;
34403;SDS011;23116;47.660;9.126;2024-01-07T14:15:07;3.03;;;2.72;;
34403;SDS011;23116;47.660;9.126;2024-01-07T14:17:35;4.90;;;2.50;;
34403;SDS011;23116;47.660;9.126;2024-01-07T14:20:02;2.50;;;2.30;;
34403;SDS011;23116;47.660;9.126;2024-01-07T14:22:33;2.72;;;2.53;;
34403;SDS011;23116;47.660;9.126;2024-01-07T14:25:00;2.65;;;2.35;;
34403;SDS011;23116;47.660;9.126;2024-01-07T14:27:28;2.47;;;2.28;;
34403;SDS011;23116;47.660;9.126;2024-01-07T14:29:55;2.58;;;2.38;;
34403;SDS011;23116;47.660;9.126;2024-01-07T14:32:22;2.50;;;2.30;;
34403;SDS011;23116;47.660;9.126;2024-01-07T14:34:49;2.60;;;2.40;;
34403;SDS011;23116;47.660;9.126;2024-01-07T14:37:16;2.90;;;2.60;;
34403;SDS011;23116;47.660;9.126;2024-01-07T14:39:45;2.78;;;2.55;;
34403;SDS011;23116;47.660;9.126;2024-01-07T14:42:12;2.53;;;2.33;;
34403;SDS011;23116;47.660;9.126;2024-01-07T14:44:39;2.53;;;2.30;;
34403;SDS011;23116;47.660;9.126;2024-01-07T14:47:06;2.92;;;2.63;;
34403;SDS011;23116;47.660;9.126;2024-01-07T14:49:34;2.50;;;2.22;;
34403;SDS011;23116;47.660;9.126;2024-01-07T14:52:01;2.60;;;2.40;;
34403;SDS011;23116;47.660;9.126;2024-01-07T14:54:28;1.95;;;1.75;;
34403;SDS011;23116;47.660;9.126;2024-01-07T14:56:57;2.75;;;2.45;;
34403;SDS011;23116;47.660;9.126;2024-01-07T14:59:24;3.45;;;2.05;;